createdAt,value
2023-02-05T00:01:24.190Z,35.38
2023-02-05T00:03:51.020Z,33.00
2023-02-05T00:06:17.754Z,39.30
2023-02-05T00:08:44.672Z,38.22
2023-02-05T00:11:11.430Z,39.42
2023-02-05T00:13:40.165Z,32.90
2023-02-05T00:16:15.116Z,44.67
2023-02-05T00:18:42.247Z,41.38
2023-02-05T00:21:09.637Z,43.60
2023-02-05T00:23:36.962Z,43.38
2023-02-05T00:26:04.940Z,42.95
2023-02-05T00:28:36.048Z,39.60
2023-02-05T00:31:08.583Z,40.50
2023-02-05T00:33:35.244Z,42.95
2023-02-05T00:36:02.090Z,35.90
2023-02-05T00:38:28.737Z,29.27
2023-02-05T00:40:55.649Z,34.90
2023-02-05T00:43:22.317Z,40.00
2023-02-05T00:45:48.999Z,35.15
2023-02-05T00:48:15.692Z,35.50
2023-02-05T00:50:42.698Z,30.77
2023-02-05T00:53:09.308Z,38.35
2023-02-05T00:55:36.113Z,45.38
2023-02-05T00:58:02.904Z,30.25
2023-02-05T01:00:29.798Z,44.40
2023-02-05T01:02:56.443Z,37.45
2023-02-05T01:05:23.109Z,32.70
2023-02-05T01:07:49.727Z,41.70
2023-02-05T01:10:16.742Z,38.13
2023-02-05T01:12:43.586Z,37.78
2023-02-05T01:15:13.275Z,42.92
2023-02-05T01:17:40.174Z,42.15
2023-02-05T01:20:08.096Z,40.20
2023-02-05T01:22:35.180Z,49.58
2023-02-05T01:25:01.983Z,42.90
2023-02-05T01:27:28.952Z,48.30
2023-02-05T01:29:55.622Z,48.42
2023-02-05T01:32:22.228Z,47.95
2023-02-05T01:34:48.940Z,55.35
2023-02-05T01:37:15.589Z,64.40
2023-02-05T01:39:42.259Z,57.20
2023-02-05T01:42:19.277Z,57.10
2023-02-05T01:45:32.502Z,50.03
2023-02-05T01:48:04.317Z,58.83
2023-02-05T01:50:41.228Z,52.40
2023-02-05T01:53:29.491Z,60.30
2023-02-05T01:56:04.694Z,58.75
2023-02-05T01:58:37.505Z,73.90
2023-02-05T02:01:04.234Z,81.40
2023-02-05T02:03:31.867Z,72.90
2023-02-05T02:05:59.057Z,66.45
2023-02-05T02:08:25.710Z,69.40
2023-02-05T02:10:56.711Z,75.18
2023-02-05T02:13:26.484Z,69.38
2023-02-05T02:15:53.771Z,69.00
2023-02-05T02:18:27.613Z,66.55
2023-02-05T02:21:13.253Z,65.50
2023-02-05T02:24:22.873Z,69.07
2023-02-05T02:27:27.009Z,63.15
2023-02-05T02:30:09.933Z,62.17
2023-02-05T02:32:49.322Z,62.90
2023-02-05T02:35:25.396Z,63.85
2023-02-05T02:38:02.959Z,66.35
2023-02-05T02:40:42.253Z,73.25
2023-02-05T02:43:19.282Z,76.38
2023-02-05T02:46:20.921Z,72.70
2023-02-05T02:48:51.414Z,69.75
2023-02-05T02:51:20.585Z,87.07
2023-02-05T02:53:50.531Z,92.68
2023-02-05T02:56:19.244Z,86.03
2023-02-05T02:58:52.245Z,85.90
2023-02-05T03:01:23.334Z,91.43
2023-02-05T03:03:56.718Z,78.70
2023-02-05T03:06:23.775Z,85.93
2023-02-05T03:09:08.861Z,94.60
2023-02-05T03:11:35.645Z,101.18
2023-02-05T03:14:02.400Z,92.90
2023-02-05T03:16:33.515Z,91.90
2023-02-05T03:19:02.736Z,96.10
2023-02-05T03:21:41.748Z,102.13
2023-02-05T03:24:09.668Z,99.55
2023-02-05T03:26:36.740Z,89.80
2023-02-05T03:29:30.743Z,101.53
2023-02-05T03:32:44.303Z,100.05
2023-02-05T03:35:25.604Z,101.07
2023-02-05T03:38:08.872Z,99.55
2023-02-05T03:40:44.069Z,97.80
2023-02-05T03:43:25.511Z,94.32
2023-02-05T03:46:04.669Z,104.78
2023-02-05T03:48:42.045Z,88.75
2023-02-05T03:51:08.900Z,97.15
2023-02-05T03:54:01.291Z,105.10
2023-02-05T03:56:53.141Z,112.22
2023-02-05T03:59:21.573Z,94.05
2023-02-05T04:01:50.504Z,94.32
2023-02-05T04:04:18.250Z,94.40
2023-02-05T04:06:48.609Z,99.72
2023-02-05T04:09:15.943Z,102.93
2023-02-05T04:11:43.536Z,98.90
2023-02-05T04:14:11.114Z,110.63
2023-02-05T04:16:39.865Z,98.60
2023-02-05T04:19:07.457Z,97.22
2023-02-05T04:21:34.192Z,111.68
2023-02-05T04:24:01.210Z,105.90
2023-02-05T04:26:28.278Z,103.72
2023-02-05T04:29:02.397Z,109.13
2023-02-05T04:31:31.908Z,113.47
2023-02-05T04:34:00.386Z,114.00
2023-02-05T04:36:27.553Z,104.97
2023-02-05T04:38:54.248Z,103.40
2023-02-05T04:41:22.125Z,106.90
2023-02-05T04:43:48.760Z,101.93
2023-02-05T04:46:15.414Z,108.15
2023-02-05T04:48:42.174Z,105.32
2023-02-05T04:51:13.491Z,113.43
2023-02-05T04:53:40.642Z,106.30
2023-02-05T04:56:15.887Z,116.13
2023-02-05T04:58:43.594Z,100.00
2023-02-05T05:01:15.999Z,106.32
2023-02-05T05:03:43.523Z,104.32
2023-02-05T05:06:10.484Z,93.05
2023-02-05T05:08:37.332Z,97.43
2023-02-05T05:11:12.946Z,96.25
2023-02-05T05:13:39.947Z,93.82
2023-02-05T05:16:07.976Z,96.68
2023-02-05T05:18:35.048Z,87.28
2023-02-05T05:21:02.307Z,87.60
2023-02-05T05:23:29.072Z,87.93
2023-02-05T05:25:55.733Z,85.45
2023-02-05T05:28:22.434Z,90.25
2023-02-05T05:30:49.360Z,76.82
2023-02-05T05:33:16.597Z,83.70
2023-02-05T05:35:43.241Z,69.70
2023-02-05T05:38:09.921Z,73.05
2023-02-05T05:40:54.926Z,79.38
2023-02-05T05:43:40.122Z,70.10
2023-02-05T05:46:07.927Z,64.65
2023-02-05T05:48:34.906Z,63.95
2023-02-05T05:51:01.579Z,61.95
2023-02-05T05:53:28.377Z,64.03
2023-02-05T05:55:54.999Z,63.47
2023-02-05T05:58:21.681Z,58.20
2023-02-05T06:00:48.354Z,59.25
2023-02-05T06:03:15.374Z,58.13
2023-02-05T06:05:42.365Z,53.60
2023-02-05T06:08:09.021Z,54.28
2023-02-05T06:10:36.140Z,57.70
2023-02-05T06:13:02.789Z,56.90
2023-02-05T06:15:29.430Z,56.00
2023-02-05T06:17:56.076Z,50.35
2023-02-05T06:20:22.861Z,42.55
2023-02-05T06:22:49.590Z,45.05
2023-02-05T06:25:16.300Z,42.67
2023-02-05T06:27:42.976Z,41.30
2023-02-05T06:30:10.514Z,46.40
2023-02-05T06:32:37.392Z,45.42
2023-02-05T06:35:04.423Z,37.97
2023-02-05T06:37:46.144Z,37.90
2023-02-05T06:40:15.425Z,42.45
2023-02-05T06:42:42.155Z,43.47
2023-02-05T06:45:10.030Z,41.95
2023-02-05T06:47:37.634Z,45.88
2023-02-05T06:50:05.661Z,40.10
2023-02-05T06:52:32.316Z,38.80
2023-02-05T06:54:58.960Z,40.58
2023-02-05T06:57:25.721Z,42.45
2023-02-05T06:59:52.349Z,43.33
2023-02-05T07:02:19.122Z,42.70
2023-02-05T07:04:46.190Z,47.00
2023-02-05T07:07:13.590Z,40.92
2023-02-05T07:09:40.288Z,48.88
2023-02-05T07:12:07.269Z,45.72
2023-02-05T07:14:40.908Z,38.60
2023-02-05T07:17:08.342Z,45.03
2023-02-05T07:19:35.910Z,46.05
2023-02-05T07:22:02.586Z,40.50
2023-02-05T07:24:29.279Z,45.13
2023-02-05T07:26:55.917Z,44.25
2023-02-05T07:29:22.738Z,42.33
2023-02-05T07:31:50.642Z,48.90
2023-02-05T07:34:17.408Z,36.95
2023-02-05T07:36:44.154Z,41.08
2023-02-05T07:39:10.954Z,43.53
2023-02-05T07:41:37.614Z,42.58
2023-02-05T07:44:05.219Z,39.08
2023-02-05T07:46:32.040Z,34.70
2023-02-05T07:48:58.743Z,28.85
2023-02-05T07:51:26.796Z,27.45
2023-02-05T07:53:53.989Z,24.20
2023-02-05T07:56:21.669Z,14.95
2023-02-05T07:58:48.774Z,12.30
2023-02-05T08:01:15.560Z,10.73
2023-02-05T08:03:42.346Z,7.30
2023-02-05T08:06:13.812Z,8.18
2023-02-05T08:08:41.509Z,8.77
2023-02-05T08:11:08.264Z,12.18
2023-02-05T08:13:34.973Z,9.07
2023-02-05T08:16:05.998Z,9.65
2023-02-05T08:18:32.867Z,10.55
2023-02-05T08:20:59.765Z,7.95
2023-02-05T08:23:26.948Z,11.35
2023-02-05T08:25:58.123Z,6.80
2023-02-05T08:28:27.133Z,6.93
2023-02-05T08:30:53.864Z,7.57
2023-02-05T08:33:20.551Z,5.78
2023-02-05T08:35:47.313Z,9.73
2023-02-05T08:38:14.196Z,10.55
2023-02-05T08:40:41.268Z,5.75
2023-02-05T08:43:08.462Z,5.00
2023-02-05T08:45:35.889Z,5.95
2023-02-05T08:48:02.883Z,8.20
2023-02-05T08:50:29.662Z,8.82
2023-02-05T08:52:56.407Z,10.68
2023-02-05T08:55:23.107Z,12.52
2023-02-05T08:57:49.717Z,5.07
2023-02-05T09:00:16.750Z,13.75
2023-02-05T09:02:43.719Z,8.95
2023-02-05T09:05:10.568Z,14.82
2023-02-05T09:07:39.326Z,10.75
2023-02-05T09:10:12.160Z,9.68
2023-02-05T09:12:39.396Z,12.02
2023-02-05T09:15:07.456Z,16.92
2023-02-05T09:17:34.195Z,12.57
2023-02-05T09:20:01.139Z,13.57
2023-02-05T09:22:27.823Z,13.32
2023-02-05T09:24:54.566Z,10.35
2023-02-05T09:27:21.326Z,10.25
2023-02-05T09:29:48.062Z,15.10
2023-02-05T09:32:14.852Z,11.15
2023-02-05T09:34:41.632Z,18.67
2023-02-05T09:37:08.341Z,12.10
2023-02-05T09:40:18.541Z,12.45
2023-02-05T09:42:38.119Z,13.60
2023-02-05T09:45:16.611Z,10.25
2023-02-05T09:48:02.683Z,10.32
2023-02-05T09:50:30.353Z,16.75
2023-02-05T09:53:02.260Z,20.83
2023-02-05T09:55:37.139Z,17.42
2023-02-05T09:58:17.023Z,14.07
2023-02-05T10:00:50.569Z,15.70
2023-02-05T10:03:44.085Z,16.65
2023-02-05T10:06:21.124Z,20.73
2023-02-05T10:08:58.807Z,9.13
2023-02-05T10:11:31.683Z,17.40
2023-02-05T10:14:25.514Z,17.08
2023-02-05T10:17:02.345Z,10.13
2023-02-05T10:19:48.572Z,18.20
2023-02-05T10:22:35.171Z,15.25
2023-02-05T10:25:36.305Z,19.00
2023-02-05T10:28:25.333Z,20.80
2023-02-05T10:31:12.376Z,23.98
2023-02-05T10:33:55.961Z,15.70
2023-02-05T10:36:26.923Z,10.93
2023-02-05T10:38:56.328Z,13.98
2023-02-05T10:41:30.334Z,23.85
2023-02-05T10:44:16.034Z,21.92
2023-02-05T10:46:51.428Z,17.63
2023-02-05T10:49:25.238Z,11.90
2023-02-05T10:52:15.932Z,15.63
2023-02-05T10:54:43.284Z,20.20
2023-02-05T10:57:16.059Z,18.60
2023-02-05T11:00:00.228Z,30.65
2023-02-05T11:02:39.162Z,17.50
2023-02-05T11:05:21.470Z,18.20
2023-02-05T11:07:51.080Z,16.10
2023-02-05T11:10:22.151Z,18.20
2023-02-05T11:12:51.833Z,23.58
2023-02-05T11:15:22.472Z,25.00
2023-02-05T11:18:21.757Z,20.67
2023-02-05T11:20:56.967Z,20.98
2023-02-05T11:23:25.426Z,21.60
2023-02-05T11:25:56.910Z,23.85
2023-02-05T11:28:31.969Z,27.67
2023-02-05T11:31:23.794Z,27.17
2023-02-05T11:33:51.150Z,19.02
2023-02-05T11:36:22.574Z,19.75
2023-02-05T11:38:52.522Z,26.65
2023-02-05T11:41:47.899Z,17.55
2023-02-05T11:44:37.121Z,22.80
2023-02-05T11:47:03.954Z,22.27
2023-02-05T11:49:34.879Z,16.63
2023-02-05T11:52:12.568Z,19.63
2023-02-05T11:54:44.086Z,18.48
2023-02-05T11:57:19.670Z,17.60
2023-02-05T12:00:02.175Z,17.38
2023-02-05T12:02:34.292Z,17.40
2023-02-05T12:05:13.741Z,20.30
2023-02-05T12:07:56.502Z,25.55
2023-02-05T12:10:43.378Z,14.93
2023-02-05T12:13:44.099Z,17.70
2023-02-05T12:16:42.625Z,23.17
2023-02-05T12:19:20.522Z,18.52
2023-02-05T12:22:11.084Z,28.48
2023-02-05T12:25:01.654Z,18.50
2023-02-05T12:27:49.714Z,19.23
2023-02-05T12:30:26.093Z,22.10
2023-02-05T12:33:15.070Z,15.48
2023-02-05T12:35:47.434Z,21.98
2023-02-05T12:38:33.079Z,23.95
2023-02-05T12:41:18.170Z,29.27
2023-02-05T12:43:49.891Z,14.45
2023-02-05T12:46:55.714Z,15.40
2023-02-05T12:49:44.055Z,17.55
2023-02-05T12:52:25.746Z,20.30
2023-02-05T12:55:02.739Z,16.73
2023-02-05T12:57:38.934Z,15.98
2023-02-05T13:00:22.944Z,17.33
2023-02-05T13:03:27.327Z,19.70
2023-02-05T13:06:06.045Z,17.02
2023-02-05T13:08:49.148Z,30.55
2023-02-05T13:11:25.568Z,9.85
2023-02-05T13:14:06.972Z,19.38
2023-02-05T13:16:45.674Z,14.48
2023-02-05T13:19:30.932Z,17.08
2023-02-05T13:22:20.140Z,16.70
2023-02-05T13:25:11.410Z,15.45
2023-02-05T13:28:04.256Z,11.45
2023-02-05T13:30:39.118Z,11.73
2023-02-05T13:33:07.999Z,13.50
2023-02-05T13:35:50.840Z,14.27
2023-02-05T13:38:42.398Z,10.48
2023-02-05T13:41:28.134Z,16.00
2023-02-05T13:44:16.931Z,12.32
2023-02-05T13:46:54.841Z,20.95
2023-02-05T13:50:15.467Z,10.20
2023-02-05T13:53:10.651Z,21.25
2023-02-05T13:55:59.190Z,19.83
2023-02-05T13:58:35.664Z,23.20
2023-02-05T14:01:07.525Z,22.02
2023-02-05T14:03:36.545Z,25.80
2023-02-05T14:06:21.912Z,21.52
2023-02-05T14:09:02.639Z,28.08
2023-02-05T14:11:48.841Z,22.47
2023-02-05T14:14:39.338Z,28.45
2023-02-05T14:17:27.526Z,24.75
2023-02-05T14:19:57.108Z,27.30
2023-02-05T14:22:47.082Z,23.17
2023-02-05T14:25:36.408Z,22.25
2023-02-05T14:28:23.956Z,26.48
2023-02-05T14:30:57.273Z,31.17
2023-02-05T14:33:30.570Z,29.38
2023-02-05T14:36:17.036Z,21.67
2023-02-05T14:38:56.598Z,18.33
2023-02-05T14:41:27.964Z,25.90
2023-02-05T14:44:02.561Z,22.30
2023-02-05T14:46:39.720Z,20.67
2023-02-05T14:49:20.603Z,19.20
2023-02-05T14:51:59.982Z,18.98
2023-02-05T14:54:33.969Z,38.58
2023-02-05T14:57:25.238Z,21.23
2023-02-05T15:00:02.338Z,19.77
2023-02-05T15:03:05.782Z,20.27
2023-02-05T15:05:44.668Z,19.20
2023-02-05T15:08:15.570Z,25.23
2023-02-05T15:10:54.568Z,30.02
2023-02-05T15:13:22.300Z,23.38
2023-02-05T15:16:15.858Z,17.40
2023-02-05T15:18:51.697Z,16.35
2023-02-05T15:21:29.635Z,28.50
2023-02-05T15:24:01.992Z,15.23
2023-02-05T15:27:01.229Z,26.13
2023-02-05T15:29:30.492Z,21.52
2023-02-05T15:32:15.742Z,21.75
2023-02-05T15:35:00.488Z,22.48
2023-02-05T15:37:32.226Z,22.85
2023-02-05T15:40:21.510Z,20.55
2023-02-05T15:42:53.592Z,22.38
2023-02-05T15:45:27.132Z,23.70
2023-02-05T15:48:03.176Z,19.17
2023-02-05T15:50:31.186Z,15.48
2023-02-05T15:52:58.586Z,19.90
2023-02-05T15:55:27.620Z,19.63
2023-02-05T15:58:04.436Z,31.25
2023-02-05T16:00:33.658Z,18.08
2023-02-05T16:03:02.647Z,24.13
2023-02-05T16:05:31.253Z,29.83
2023-02-05T16:08:01.732Z,20.20
2023-02-05T16:10:31.788Z,37.35
2023-02-05T16:13:02.754Z,20.73
2023-02-05T16:15:36.711Z,24.70
2023-02-05T16:18:07.017Z,25.13
2023-02-05T16:20:37.782Z,24.55
2023-02-05T16:23:26.312Z,20.93
2023-02-05T16:26:05.293Z,21.75
2023-02-05T16:28:41.086Z,26.50
2023-02-05T16:31:14.020Z,30.83
2023-02-05T16:33:45.850Z,31.65
2023-02-05T16:36:21.347Z,27.20
2023-02-05T16:39:15.049Z,28.45
2023-02-05T16:41:43.961Z,28.98
2023-02-05T16:44:27.910Z,21.98
2023-02-05T16:47:14.724Z,23.00
2023-02-05T16:49:43.192Z,21.80
2023-02-05T16:52:32.713Z,20.30
2023-02-05T16:55:05.662Z,21.88
2023-02-05T16:57:36.989Z,23.88
2023-02-05T17:00:25.785Z,29.60
2023-02-05T17:02:55.355Z,21.42
2023-02-05T17:05:41.903Z,28.52
2023-02-05T17:08:12.115Z,21.77
2023-02-05T17:10:54.189Z,28.38
2023-02-05T17:13:40.597Z,23.45
2023-02-05T17:16:29.635Z,22.30
2023-02-05T17:18:59.355Z,29.25
2023-02-05T17:21:36.868Z,23.23
2023-02-05T17:24:09.025Z,17.42
2023-02-05T17:26:40.658Z,24.98
2023-02-05T17:31:39.244Z,26.60
2023-02-05T17:34:06.438Z,26.92
2023-02-05T17:36:33.197Z,25.60
2023-02-05T17:38:59.882Z,20.27
2023-02-05T17:41:53.741Z,34.13
2023-02-05T17:44:20.530Z,34.95
2023-02-05T17:46:47.219Z,27.85
2023-02-05T17:49:13.908Z,29.08
2023-02-05T17:51:42.344Z,25.20
2023-02-05T17:54:25.310Z,24.50
2023-02-05T17:56:55.202Z,24.27
2023-02-05T17:59:24.571Z,23.50
2023-02-05T18:01:52.462Z,31.02
2023-02-05T18:04:19.589Z,28.77
2023-02-05T18:06:48.473Z,21.38
2023-02-05T18:09:16.399Z,19.60
2023-02-05T18:11:43.105Z,22.65
2023-02-05T18:14:10.560Z,16.83
2023-02-05T18:16:37.573Z,26.45
2023-02-05T18:19:04.495Z,28.40
2023-02-05T18:21:31.151Z,32.70
2023-02-05T18:23:57.765Z,26.58
2023-02-05T18:26:26.937Z,28.67
2023-02-05T18:28:54.127Z,23.25
2023-02-05T18:31:20.874Z,22.48
2023-02-05T18:33:48.936Z,24.80
2023-02-05T18:36:16.007Z,23.67
2023-02-05T18:38:45.718Z,28.00
2023-02-05T18:41:18.057Z,31.42
2023-02-05T18:43:44.946Z,25.42
2023-02-05T18:46:16.692Z,26.25
2023-02-05T18:48:45.609Z,28.85
2023-02-05T18:51:14.545Z,30.52
2023-02-05T18:53:43.115Z,26.58
2023-02-05T18:56:13.994Z,27.13
2023-02-05T18:58:41.706Z,34.83
2023-02-05T19:01:16.423Z,28.42
2023-02-05T19:03:43.598Z,29.40
2023-02-05T19:06:12.362Z,25.20
2023-02-05T19:08:39.046Z,21.88
2023-02-05T19:11:11.767Z,28.42
2023-02-05T19:13:39.070Z,29.88
2023-02-05T19:16:07.325Z,32.80
2023-02-05T19:18:34.164Z,23.30
2023-02-05T19:21:09.480Z,26.95
2023-02-05T19:23:37.036Z,32.03
2023-02-05T19:26:10.040Z,25.85
2023-02-05T19:28:37.415Z,26.90
2023-02-05T19:31:05.345Z,29.55
2023-02-05T19:33:32.899Z,33.10
2023-02-05T19:36:01.115Z,30.00
2023-02-05T19:38:28.218Z,26.00
2023-02-05T19:40:54.923Z,27.40
2023-02-05T19:43:21.807Z,30.25
2023-02-05T19:45:48.876Z,37.88
2023-02-05T19:48:16.023Z,25.95
2023-02-05T19:50:42.840Z,26.38
2023-02-05T19:53:10.241Z,35.78
2023-02-05T19:55:36.969Z,28.50
2023-02-05T19:58:03.734Z,23.67
2023-02-05T20:00:30.378Z,28.60
2023-02-05T20:02:57.426Z,36.97
2023-02-05T20:05:24.326Z,29.50
2023-02-05T20:07:52.166Z,31.25
2023-02-05T20:10:19.441Z,27.13
2023-02-05T20:12:48.472Z,30.55
2023-02-05T20:15:15.694Z,23.23
2023-02-05T20:17:43.585Z,29.13
2023-02-05T20:20:22.213Z,33.75
2023-02-05T20:22:54.956Z,35.63
2023-02-05T20:25:21.811Z,36.92
2023-02-05T20:27:48.486Z,28.10
2023-02-05T20:30:33.961Z,36.17
2023-02-05T20:33:00.741Z,32.55
2023-02-05T20:35:27.330Z,37.65
2023-02-05T20:37:54.011Z,35.10
2023-02-05T20:40:20.618Z,38.45
2023-02-05T20:42:47.221Z,41.95
2023-02-05T20:45:13.899Z,40.70
2023-02-05T20:47:40.479Z,28.20
2023-02-05T20:50:08.298Z,42.97
2023-02-05T20:52:35.001Z,33.25
2023-02-05T20:55:01.583Z,30.88
2023-02-05T20:57:28.288Z,26.42
2023-02-05T20:59:55.438Z,27.98
2023-02-05T21:02:23.521Z,35.92
2023-02-05T21:04:52.478Z,39.08
2023-02-05T21:07:19.447Z,35.95
2023-02-05T21:09:46.079Z,37.38
2023-02-05T21:12:12.698Z,41.60
2023-02-05T21:14:39.371Z,32.47
2023-02-05T21:17:09.150Z,33.55
2023-02-05T21:19:35.951Z,48.90
2023-02-05T21:22:02.722Z,29.80
2023-02-05T21:24:29.404Z,25.98
2023-02-05T21:26:56.096Z,37.03
2023-02-05T21:29:22.727Z,36.90
2023-02-05T21:31:52.851Z,31.38
2023-02-05T21:34:26.010Z,31.45
2023-02-05T21:36:54.883Z,26.13
2023-02-05T21:39:21.934Z,34.25
2023-02-05T21:41:50.607Z,34.63
2023-02-05T21:44:17.422Z,30.50
2023-02-05T21:46:44.186Z,44.50
2023-02-05T21:49:11.512Z,39.28
2023-02-05T21:51:38.203Z,35.55
2023-02-05T21:54:06.101Z,39.92
2023-02-05T21:56:35.242Z,36.72
2023-02-05T21:59:02.182Z,32.88
2023-02-05T22:01:31.462Z,50.58
2023-02-05T22:04:04.092Z,35.58
2023-02-05T22:06:34.150Z,32.95
2023-02-05T22:09:01.824Z,35.10
2023-02-05T22:11:28.802Z,37.20
2023-02-05T22:13:56.352Z,44.53
2023-02-05T22:16:25.808Z,47.85
2023-02-05T22:18:53.479Z,30.13
2023-02-05T22:21:29.060Z,39.03
2023-02-05T22:23:58.215Z,37.50
2023-02-05T22:26:28.525Z,37.75
2023-02-05T22:28:59.578Z,43.63
2023-02-05T22:31:27.957Z,44.80
2023-02-05T22:33:55.338Z,36.17
2023-02-05T22:36:25.352Z,43.83
2023-02-05T22:38:53.219Z,46.30
2023-02-05T22:41:35.272Z,43.33
2023-02-05T22:44:04.049Z,39.90
2023-02-05T22:46:33.082Z,39.80
2023-02-05T22:49:01.565Z,33.60
2023-02-05T22:51:36.732Z,34.50
2023-02-05T22:54:05.046Z,26.98
2023-02-05T22:56:32.041Z,25.50
2023-02-05T22:59:01.372Z,35.78
2023-02-05T23:01:33.487Z,42.40
2023-02-05T23:04:02.265Z,35.87
2023-02-05T23:06:35.196Z,36.15
2023-02-05T23:09:05.751Z,26.25
2023-02-05T23:11:33.487Z,28.40
2023-02-05T23:14:01.820Z,28.48
2023-02-05T23:16:31.466Z,28.67
2023-02-05T23:19:07.367Z,25.33
2023-02-05T23:21:35.904Z,31.25
2023-02-05T23:24:03.209Z,34.08
2023-02-05T23:26:39.332Z,29.55
2023-02-05T23:29:06.721Z,26.73
2023-02-05T23:31:33.551Z,33.13
2023-02-05T23:34:00.498Z,37.80
2023-02-05T23:36:27.229Z,35.50
2023-02-05T23:38:53.977Z,32.47
2023-02-05T23:41:36.303Z,25.08
2023-02-05T23:44:21.385Z,44.95
2023-02-05T23:46:49.386Z,28.58
2023-02-05T23:49:17.075Z,35.55
2023-02-05T23:51:43.856Z,39.38
2023-02-05T23:54:12.051Z,34.47
2023-02-05T23:56:39.957Z,30.55
2023-02-05T23:59:07.987Z,26.77
